sensor_id;sensor_type;location;lat;lon;timestamp;P1;durP1;ratioP1;P2;durP2;ratioP2
52318;SDS011;38258;51.148;14.068;2022-08-18T00:02:10;6.63;;;4.75;;
52318;SDS011;38258;51.148;14.068;2022-08-18T00:04:39;6.93;;;4.55;;
52318;SDS011;38258;51.148;14.068;2022-08-18T00:07:07;7.53;;;4.47;;
52318;SDS011;38258;51.148;14.068;2022-08-18T00:09:38;5.93;;;4.43;;
52318;SDS011;38258;51.148;14.068;2022-08-18T00:12:08;5.80;;;4.13;;
52318;SDS011;38258;51.148;14.068;2022-08-18T00:14:38;7.18;;;4.30;;
52318;SDS011;38258;51.148;14.068;2022-08-18T00:17:06;6.25;;;4.40;;
52318;SDS011;38258;51.148;14.068;2022-08-18T00:19:33;6.68;;;4.50;;
52318;SDS011;38258;51.148;14.068;2022-08-18T00:22:00;7.13;;;4.32;;
52318;SDS011;38258;51.148;14.068;2022-08-18T00:24:27;6.65;;;4.38;;
52318;SDS011;38258;51.148;14.068;2022-08-18T00:26:55;7.22;;;4.60;;
52318;SDS011;38258;51.148;14.068;2022-08-18T00:29:22;8.20;;;4.60;;
52318;SDS011;38258;51.148;14.068;2022-08-18T00:31:49;6.55;;;4.68;;
52318;SDS011;38258;51.148;14.068;2022-08-18T00:34:17;6.45;;;4.18;;
52318;SDS011;38258;51.148;14.068;2022-08-18T00:36:44;6.65;;;4.30;;
52318;SDS011;38258;51.148;14.068;2022-08-18T00:39:11;7.05;;;4.68;;
52318;SDS011;38258;51.148;14.068;2022-08-18T00:41:38;7.22;;;4.47;;
52318;SDS011;38258;51.148;14.068;2022-08-18T00:44:04;7.63;;;4.22;;
52318;SDS011;38258;51.148;14.068;2022-08-18T00:46:32;6.80;;;4.63;;
52318;SDS011;38258;51.148;14.068;2022-08-18T00:49:01;6.60;;;4.55;;
52318;SDS011;38258;51.148;14.068;2022-08-18T00:51:32;5.80;;;4.18;;
52318;SDS011;38258;51.148;14.068;2022-08-18T00:54:05;6.82;;;4.50;;
52318;SDS011;38258;51.148;14.068;2022-08-18T00:56:38;5.88;;;4.38;;
52318;SDS011;38258;51.148;14.068;2022-08-18T00:59:10;5.97;;;4.15;;
52318;SDS011;38258;51.148;14.068;2022-08-18T01:01:41;5.18;;;3.90;;
52318;SDS011;38258;51.148;14.068;2022-08-18T01:04:10;5.95;;;4.45;;
52318;SDS011;38258;51.148;14.068;2022-08-18T01:06:41;6.25;;;4.20;;
52318;SDS011;38258;51.148;14.068;2022-08-18T01:09:12;6.20;;;4.67;;
52318;SDS011;38258;51.148;14.068;2022-08-18T01:11:41;6.68;;;4.18;;
52318;SDS011;38258;51.148;14.068;2022-08-18T01:14:09;5.60;;;4.35;;
52318;SDS011;38258;51.148;14.068;2022-08-18T01:16:39;6.72;;;4.60;;
52318;SDS011;38258;51.148;14.068;2022-08-18T01:19:24;5.50;;;3.85;;
52318;SDS011;38258;51.148;14.068;2022-08-18T01:22:12;6.18;;;4.60;;
52318;SDS011;38258;51.148;14.068;2022-08-18T01:24:45;5.65;;;4.30;;
52318;SDS011;38258;51.148;14.068;2022-08-18T01:27:29;5.55;;;4.32;;
52318;SDS011;38258;51.148;14.068;2022-08-18T01:29:56;6.13;;;4.38;;
52318;SDS011;38258;51.148;14.068;2022-08-18T01:32:27;7.15;;;4.40;;
52318;SDS011;38258;51.148;14.068;2022-08-18T01:34:53;6.15;;;4.40;;
52318;SDS011;38258;51.148;14.068;2022-08-18T01:37:21;6.72;;;4.65;;
52318;SDS011;38258;51.148;14.068;2022-08-18T01:39:50;6.57;;;4.45;;
52318;SDS011;38258;51.148;14.068;2022-08-18T01:42:17;6.13;;;4.55;;
52318;SDS011;38258;51.148;14.068;2022-08-18T01:44:46;6.53;;;4.00;;
52318;SDS011;38258;51.148;14.068;2022-08-18T01:47:15;6.18;;;4.53;;
52318;SDS011;38258;51.148;14.068;2022-08-18T01:49:42;6.43;;;4.30;;
52318;SDS011;38258;51.148;14.068;2022-08-18T01:52:10;7.30;;;4.30;;
52318;SDS011;38258;51.148;14.068;2022-08-18T01:54:44;6.55;;;4.43;;
52318;SDS011;38258;51.148;14.068;2022-08-18T01:57:12;6.68;;;4.60;;
52318;SDS011;38258;51.148;14.068;2022-08-18T01:59:39;7.97;;;4.82;;
52318;SDS011;38258;51.148;14.068;2022-08-18T02:02:07;6.00;;;4.43;;
52318;SDS011;38258;51.148;14.068;2022-08-18T02:04:34;7.28;;;4.60;;
52318;SDS011;38258;51.148;14.068;2022-08-18T02:07:03;5.95;;;4.18;;
52318;SDS011;38258;51.148;14.068;2022-08-18T02:09:31;5.97;;;4.03;;
52318;SDS011;38258;51.148;14.068;2022-08-18T02:11:58;5.22;;;3.88;;
52318;SDS011;38258;51.148;14.068;2022-08-18T02:14:26;6.78;;;4.47;;
52318;SDS011;38258;51.148;14.068;2022-08-18T02:16:54;7.07;;;4.75;;
52318;SDS011;38258;51.148;14.068;2022-08-18T02:19:21;5.97;;;4.13;;
52318;SDS011;38258;51.148;14.068;2022-08-18T02:21:49;5.70;;;4.20;;
52318;SDS011;38258;51.148;14.068;2022-08-18T02:24:16;5.82;;;4.03;;
52318;SDS011;38258;51.148;14.068;2022-08-18T02:26:43;7.13;;;4.68;;
52318;SDS011;38258;51.148;14.068;2022-08-18T02:29:10;6.75;;;4.25;;
52318;SDS011;38258;51.148;14.068;2022-08-18T02:31:39;6.93;;;4.20;;
52318;SDS011;38258;51.148;14.068;2022-08-18T02:34:05;6.45;;;4.65;;
52318;SDS011;38258;51.148;14.068;2022-08-18T02:36:32;6.18;;;4.28;;
52318;SDS011;38258;51.148;14.068;2022-08-18T02:38:58;6.45;;;4.40;;
52318;SDS011;38258;51.148;14.068;2022-08-18T02:41:25;6.30;;;4.10;;
52318;SDS011;38258;51.148;14.068;2022-08-18T02:43:52;8.45;;;4.90;;
52318;SDS011;38258;51.148;14.068;2022-08-18T02:46:19;6.47;;;4.60;;
52318;SDS011;38258;51.148;14.068;2022-08-18T02:48:46;6.45;;;4.47;;
52318;SDS011;38258;51.148;14.068;2022-08-18T02:51:14;7.05;;;4.50;;
52318;SDS011;38258;51.148;14.068;2022-08-18T02:53:43;5.97;;;4.40;;
52318;SDS011;38258;51.148;14.068;2022-08-18T02:56:12;7.22;;;4.90;;
52318;SDS011;38258;51.148;14.068;2022-08-18T02:58:48;6.20;;;4.25;;
52318;SDS011;38258;51.148;14.068;2022-08-18T03:01:17;6.30;;;4.20;;
52318;SDS011;38258;51.148;14.068;2022-08-18T03:03:44;6.28;;;4.35;;
52318;SDS011;38258;51.148;14.068;2022-08-18T03:06:11;5.72;;;4.25;;
52318;SDS011;38258;51.148;14.068;2022-08-18T03:08:38;5.78;;;4.35;;
52318;SDS011;38258;51.148;14.068;2022-08-18T03:11:04;6.38;;;4.35;;
52318;SDS011;38258;51.148;14.068;2022-08-18T03:13:31;6.28;;;4.50;;
52318;SDS011;38258;51.148;14.068;2022-08-18T03:15:57;6.07;;;4.53;;
52318;SDS011;38258;51.148;14.068;2022-08-18T03:18:24;6.45;;;4.30;;
52318;SDS011;38258;51.148;14.068;2022-08-18T03:20:50;6.72;;;4.40;;
52318;SDS011;38258;51.148;14.068;2022-08-18T03:23:18;6.70;;;4.30;;
52318;SDS011;38258;51.148;14.068;2022-08-18T03:25:45;6.30;;;4.45;;
52318;SDS011;38258;51.148;14.068;2022-08-18T03:28:13;7.50;;;4.38;;
52318;SDS011;38258;51.148;14.068;2022-08-18T03:30:41;7.25;;;4.57;;
52318;SDS011;38258;51.148;14.068;2022-08-18T03:33:08;7.22;;;4.25;;
52318;SDS011;38258;51.148;14.068;2022-08-18T03:35:35;7.70;;;4.72;;
52318;SDS011;38258;51.148;14.068;2022-08-18T03:38:02;7.03;;;4.85;;
52318;SDS011;38258;51.148;14.068;2022-08-18T03:40:30;6.97;;;4.60;;
52318;SDS011;38258;51.148;14.068;2022-08-18T03:42:57;6.95;;;4.72;;
52318;SDS011;38258;51.148;14.068;2022-08-18T03:45:23;6.78;;;4.95;;
52318;SDS011;38258;51.148;14.068;2022-08-18T03:47:52;6.97;;;4.95;;
52318;SDS011;38258;51.148;14.068;2022-08-18T03:50:19;6.85;;;4.82;;
52318;SDS011;38258;51.148;14.068;2022-08-18T03:52:45;6.28;;;4.63;;
52318;SDS011;38258;51.148;14.068;2022-08-18T03:55:13;7.47;;;4.88;;
52318;SDS011;38258;51.148;14.068;2022-08-18T03:57:41;7.75;;;4.68;;
52318;SDS011;38258;51.148;14.068;2022-08-18T04:00:08;7.97;;;4.88;;
52318;SDS011;38258;51.148;14.068;2022-08-18T04:02:36;8.02;;;5.25;;
52318;SDS011;38258;51.148;14.068;2022-08-18T04:05:03;6.43;;;4.57;;
52318;SDS011;38258;51.148;14.068;2022-08-18T04:07:30;7.60;;;4.80;;
52318;SDS011;38258;51.148;14.068;2022-08-18T04:09:56;6.55;;;4.65;;
52318;SDS011;38258;51.148;14.068;2022-08-18T04:12:23;7.80;;;5.13;;
52318;SDS011;38258;51.148;14.068;2022-08-18T04:14:51;7.25;;;4.65;;
52318;SDS011;38258;51.148;14.068;2022-08-18T04:17:17;7.18;;;5.13;;
52318;SDS011;38258;51.148;14.068;2022-08-18T04:19:48;7.88;;;4.57;;
52318;SDS011;38258;51.148;14.068;2022-08-18T04:22:16;7.28;;;4.85;;
52318;SDS011;38258;51.148;14.068;2022-08-18T04:24:43;6.80;;;4.72;;
52318;SDS011;38258;51.148;14.068;2022-08-18T04:27:09;7.05;;;4.95;;
52318;SDS011;38258;51.148;14.068;2022-08-18T04:29:36;8.57;;;4.68;;
52318;SDS011;38258;51.148;14.068;2022-08-18T04:32:04;6.40;;;4.63;;
52318;SDS011;38258;51.148;14.068;2022-08-18T04:34:32;7.53;;;4.82;;
52318;SDS011;38258;51.148;14.068;2022-08-18T04:36:59;6.40;;;4.85;;
52318;SDS011;38258;51.148;14.068;2022-08-18T04:39:26;6.30;;;4.57;;
52318;SDS011;38258;51.148;14.068;2022-08-18T04:41:52;7.35;;;5.20;;
52318;SDS011;38258;51.148;14.068;2022-08-18T04:44:19;6.88;;;4.82;;
52318;SDS011;38258;51.148;14.068;2022-08-18T04:46:47;8.00;;;4.93;;
52318;SDS011;38258;51.148;14.068;2022-08-18T04:49:16;8.00;;;4.95;;
52318;SDS011;38258;51.148;14.068;2022-08-18T04:51:44;6.80;;;5.03;;
52318;SDS011;38258;51.148;14.068;2022-08-18T04:54:34;7.57;;;4.70;;
52318;SDS011;38258;51.148;14.068;2022-08-18T04:57:06;7.95;;;5.28;;
52318;SDS011;38258;51.148;14.068;2022-08-18T04:59:34;8.35;;;5.32;;
52318;SDS011;38258;51.148;14.068;2022-08-18T05:02:02;8.38;;;5.32;;
52318;SDS011;38258;51.148;14.068;2022-08-18T05:04:34;7.03;;;5.35;;
52318;SDS011;38258;51.148;14.068;2022-08-18T05:07:02;7.60;;;5.65;;
52318;SDS011;38258;51.148;14.068;2022-08-18T05:09:31;7.45;;;5.70;;
52318;SDS011;38258;51.148;14.068;2022-08-18T05:11:58;7.82;;;5.30;;
52318;SDS011;38258;51.148;14.068;2022-08-18T05:14:26;8.15;;;5.57;;
52318;SDS011;38258;51.148;14.068;2022-08-18T05:16:53;7.18;;;5.47;;
52318;SDS011;38258;51.148;14.068;2022-08-18T05:19:23;7.20;;;5.25;;
52318;SDS011;38258;51.148;14.068;2022-08-18T05:21:52;8.65;;;5.50;;
52318;SDS011;38258;51.148;14.068;2022-08-18T05:24:19;8.98;;;5.82;;
52318;SDS011;38258;51.148;14.068;2022-08-18T05:26:47;8.45;;;5.68;;
52318;SDS011;38258;51.148;14.068;2022-08-18T05:29:15;8.23;;;5.35;;
52318;SDS011;38258;51.148;14.068;2022-08-18T05:31:42;8.10;;;5.65;;
52318;SDS011;38258;51.148;14.068;2022-08-18T05:34:10;11.07;;;5.70;;
52318;SDS011;38258;51.148;14.068;2022-08-18T05:36:43;8.07;;;5.68;;
52318;SDS011;38258;51.148;14.068;2022-08-18T05:39:23;8.25;;;5.63;;
52318;SDS011;38258;51.148;14.068;2022-08-18T05:41:54;6.65;;;5.15;;
52318;SDS011;38258;51.148;14.068;2022-08-18T05:44:31;8.30;;;5.57;;
52318;SDS011;38258;51.148;14.068;2022-08-18T05:47:02;7.07;;;5.28;;
52318;SDS011;38258;51.148;14.068;2022-08-18T05:49:31;7.80;;;5.60;;
52318;SDS011;38258;51.148;14.068;2022-08-18T05:52:00;7.57;;;5.82;;
52318;SDS011;38258;51.148;14.068;2022-08-18T05:54:33;8.45;;;5.65;;
52318;SDS011;38258;51.148;14.068;2022-08-18T05:57:21;8.85;;;6.00;;
52318;SDS011;38258;51.148;14.068;2022-08-18T05:59:52;9.82;;;6.68;;
52318;SDS011;38258;51.148;14.068;2022-08-18T06:02:23;7.50;;;5.45;;
52318;SDS011;38258;51.148;14.068;2022-08-18T06:04:59;7.65;;;5.82;;
52318;SDS011;38258;51.148;14.068;2022-08-18T06:07:30;9.18;;;5.75;;
52318;SDS011;38258;51.148;14.068;2022-08-18T06:10:01;9.90;;;6.25;;
52318;SDS011;38258;51.148;14.068;2022-08-18T06:12:31;8.15;;;5.28;;
52318;SDS011;38258;51.148;14.068;2022-08-18T06:15:01;8.10;;;5.72;;
52318;SDS011;38258;51.148;14.068;2022-08-18T06:17:36;8.55;;;5.70;;
52318;SDS011;38258;51.148;14.068;2022-08-18T06:20:23;8.40;;;6.28;;
52318;SDS011;38258;51.148;14.068;2022-08-18T06:22:57;8.35;;;5.57;;
52318;SDS011;38258;51.148;14.068;2022-08-18T06:25:32;7.50;;;5.63;;
52318;SDS011;38258;51.148;14.068;2022-08-18T06:28:05;8.00;;;5.70;;
52318;SDS011;38258;51.148;14.068;2022-08-18T06:30:40;7.18;;;5.63;;
52318;SDS011;38258;51.148;14.068;2022-08-18T06:33:17;7.55;;;5.47;;
52318;SDS011;38258;51.148;14.068;2022-08-18T06:36:06;6.70;;;5.03;;
52318;SDS011;38258;51.148;14.068;2022-08-18T06:38:42;8.43;;;6.05;;
52318;SDS011;38258;51.148;14.068;2022-08-18T06:41:17;7.03;;;5.00;;
52318;SDS011;38258;51.148;14.068;2022-08-18T06:43:52;7.55;;;5.32;;
52318;SDS011;38258;51.148;14.068;2022-08-18T06:46:27;7.90;;;5.53;;
52318;SDS011;38258;51.148;14.068;2022-08-18T06:48:59;9.25;;;5.53;;
52318;SDS011;38258;51.148;14.068;2022-08-18T06:51:33;7.68;;;5.45;;
52318;SDS011;38258;51.148;14.068;2022-08-18T06:54:01;7.53;;;5.78;;
52318;SDS011;38258;51.148;14.068;2022-08-18T06:56:35;8.05;;;5.72;;
52318;SDS011;38258;51.148;14.068;2022-08-18T06:59:20;7.70;;;5.57;;
52318;SDS011;38258;51.148;14.068;2022-08-18T07:01:51;8.55;;;5.22;;
52318;SDS011;38258;51.148;14.068;2022-08-18T07:07:32;9.02;;;5.22;;
52318;SDS011;38258;51.148;14.068;2022-08-18T07:10:03;7.03;;;5.03;;
52318;SDS011;38258;51.148;14.068;2022-08-18T07:12:32;6.45;;;5.30;;
52318;SDS011;38258;51.148;14.068;2022-08-18T07:15:00;8.52;;;5.28;;
52318;SDS011;38258;51.148;14.068;2022-08-18T07:17:30;9.82;;;5.50;;
52318;SDS011;38258;51.148;14.068;2022-08-18T07:20:00;7.13;;;5.32;;
52318;SDS011;38258;51.148;14.068;2022-08-18T07:22:31;8.60;;;5.47;;
52318;SDS011;38258;51.148;14.068;2022-08-18T07:25:18;6.95;;;5.32;;
52318;SDS011;38258;51.148;14.068;2022-08-18T07:27:50;7.40;;;5.00;;
52318;SDS011;38258;51.148;14.068;2022-08-18T07:30:33;6.53;;;5.25;;
52318;SDS011;38258;51.148;14.068;2022-08-18T07:33:04;10.20;;;5.50;;
52318;SDS011;38258;51.148;14.068;2022-08-18T07:35:52;7.03;;;5.03;;
52318;SDS011;38258;51.148;14.068;2022-08-18T07:38:24;8.10;;;5.00;;
52318;SDS011;38258;51.148;14.068;2022-08-18T07:43:28;6.70;;;5.05;;
52318;SDS011;38258;51.148;14.068;2022-08-18T07:46:06;6.20;;;5.00;;
52318;SDS011;38258;51.148;14.068;2022-08-18T07:48:37;7.25;;;5.68;;
52318;SDS011;38258;51.148;14.068;2022-08-18T07:51:05;7.65;;;5.13;;
52318;SDS011;38258;51.148;14.068;2022-08-18T07:53:45;6.03;;;5.00;;
52318;SDS011;38258;51.148;14.068;2022-08-18T07:56:22;7.25;;;5.30;;
52318;SDS011;38258;51.148;14.068;2022-08-18T07:59:00;7.60;;;4.90;;
52318;SDS011;38258;51.148;14.068;2022-08-18T08:01:36;7.10;;;5.28;;
52318;SDS011;38258;51.148;14.068;2022-08-18T08:04:09;6.57;;;5.10;;
52318;SDS011;38258;51.148;14.068;2022-08-18T08:06:44;8.55;;;5.07;;
52318;SDS011;38258;51.148;14.068;2022-08-18T08:09:19;6.20;;;4.93;;
52318;SDS011;38258;51.148;14.068;2022-08-18T08:11:52;8.35;;;5.40;;
52318;SDS011;38258;51.148;14.068;2022-08-18T08:14:28;8.90;;;5.55;;
52318;SDS011;38258;51.148;14.068;2022-08-18T08:17:03;8.10;;;5.40;;
52318;SDS011;38258;51.148;14.068;2022-08-18T08:19:42;7.57;;;5.10;;
52318;SDS011;38258;51.148;14.068;2022-08-18T08:22:28;7.28;;;4.90;;
52318;SDS011;38258;51.148;14.068;2022-08-18T08:25:00;5.63;;;4.90;;
52318;SDS011;38258;51.148;14.068;2022-08-18T08:27:33;6.55;;;5.28;;
52318;SDS011;38258;51.148;14.068;2022-08-18T08:30:13;7.20;;;5.38;;
52318;SDS011;38258;51.148;14.068;2022-08-18T08:32:44;7.40;;;5.03;;
52318;SDS011;38258;51.148;14.068;2022-08-18T08:35:21;6.85;;;5.18;;
52318;SDS011;38258;51.148;14.068;2022-08-18T08:37:52;7.60;;;5.47;;
52318;SDS011;38258;51.148;14.068;2022-08-18T08:40:23;6.97;;;5.60;;
52318;SDS011;38258;51.148;14.068;2022-08-18T08:42:57;7.15;;;5.10;;
52318;SDS011;38258;51.148;14.068;2022-08-18T08:45:29;7.10;;;5.03;;
52318;SDS011;38258;51.148;14.068;2022-08-18T08:47:59;7.75;;;5.18;;
52318;SDS011;38258;51.148;14.068;2022-08-18T08:50:35;5.93;;;4.90;;
52318;SDS011;38258;51.148;14.068;2022-08-18T08:53:17;8.88;;;5.32;;
52318;SDS011;38258;51.148;14.068;2022-08-18T08:55:49;7.13;;;4.90;;
52318;SDS011;38258;51.148;14.068;2022-08-18T08:58:21;7.05;;;4.97;;
52318;SDS011;38258;51.148;14.068;2022-08-18T09:00:53;6.95;;;5.05;;
52318;SDS011;38258;51.148;14.068;2022-08-18T09:03:27;6.53;;;5.13;;
52318;SDS011;38258;51.148;14.068;2022-08-18T09:06:08;5.82;;;4.97;;
52318;SDS011;38258;51.148;14.068;2022-08-18T09:08:49;5.50;;;4.60;;
52318;SDS011;38258;51.148;14.068;2022-08-18T09:11:37;5.22;;;4.53;;
52318;SDS011;38258;51.148;14.068;2022-08-18T09:14:35;5.70;;;4.72;;
52318;SDS011;38258;51.148;14.068;2022-08-18T09:20:39;6.57;;;4.90;;
52318;SDS011;38258;51.148;14.068;2022-08-18T09:23:16;5.53;;;4.50;;
52318;SDS011;38258;51.148;14.068;2022-08-18T09:25:48;6.55;;;4.78;;
52318;SDS011;38258;51.148;14.068;2022-08-18T09:28:18;6.60;;;5.25;;
52318;SDS011;38258;51.148;14.068;2022-08-18T09:30:52;7.65;;;5.25;;
52318;SDS011;38258;51.148;14.068;2022-08-18T09:33:46;7.13;;;5.00;;
52318;SDS011;38258;51.148;14.068;2022-08-18T09:36:30;6.10;;;5.00;;
52318;SDS011;38258;51.148;14.068;2022-08-18T09:39:09;7.13;;;5.43;;
52318;SDS011;38258;51.148;14.068;2022-08-18T09:42:06;6.75;;;4.70;;
52318;SDS011;38258;51.148;14.068;2022-08-18T09:53:54;5.65;;;4.55;;
52318;SDS011;38258;51.148;14.068;2022-08-18T10:05:54;6.13;;;4.57;;
52318;SDS011;38258;51.148;14.068;2022-08-18T10:08:48;5.82;;;4.78;;
52318;SDS011;38258;51.148;14.068;2022-08-18T10:11:30;6.07;;;5.13;;
52318;SDS011;38258;51.148;14.068;2022-08-18T10:14:29;6.57;;;4.90;;
52318;SDS011;38258;51.148;14.068;2022-08-18T10:17:13;7.55;;;5.00;;
52318;SDS011;38258;51.148;14.068;2022-08-18T10:19:52;7.22;;;5.28;;
52318;SDS011;38258;51.148;14.068;2022-08-18T10:22:33;5.20;;;4.55;;
52318;SDS011;38258;51.148;14.068;2022-08-18T10:25:07;5.50;;;4.80;;
52318;SDS011;38258;51.148;14.068;2022-08-18T10:30:42;10.15;;;5.15;;
52318;SDS011;38258;51.148;14.068;2022-08-18T10:39:15;6.28;;;4.88;;
52318;SDS011;38258;51.148;14.068;2022-08-18T10:41:51;6.75;;;5.13;;
52318;SDS011;38258;51.148;14.068;2022-08-18T10:44:22;7.18;;;5.00;;
52318;SDS011;38258;51.148;14.068;2022-08-18T10:46:52;10.52;;;5.43;;
52318;SDS011;38258;51.148;14.068;2022-08-18T10:49:21;7.32;;;4.97;;
52318;SDS011;38258;51.148;14.068;2022-08-18T10:51:54;7.93;;;5.13;;
52318;SDS011;38258;51.148;14.068;2022-08-18T10:54:30;5.85;;;4.90;;
52318;SDS011;38258;51.148;14.068;2022-08-18T10:57:08;6.30;;;4.85;;
52318;SDS011;38258;51.148;14.068;2022-08-18T10:59:43;6.28;;;4.85;;
52318;SDS011;38258;51.148;14.068;2022-08-18T11:02:25;5.95;;;5.07;;
52318;SDS011;38258;51.148;14.068;2022-08-18T11:05:05;5.60;;;4.82;;
52318;SDS011;38258;51.148;14.068;2022-08-18T11:07:35;5.43;;;4.53;;
52318;SDS011;38258;51.148;14.068;2022-08-18T11:10:14;5.82;;;4.80;;
52318;SDS011;38258;51.148;14.068;2022-08-18T11:12:51;6.63;;;5.18;;
52318;SDS011;38258;51.148;14.068;2022-08-18T11:15:26;5.82;;;4.60;;
52318;SDS011;38258;51.148;14.068;2022-08-18T11:18:10;5.60;;;4.80;;
52318;SDS011;38258;51.148;14.068;2022-08-18T11:20:53;6.55;;;4.80;;
52318;SDS011;38258;51.148;14.068;2022-08-18T11:23:20;5.05;;;4.40;;
52318;SDS011;38258;51.148;14.068;2022-08-18T11:25:47;5.70;;;4.80;;
52318;SDS011;38258;51.148;14.068;2022-08-18T11:28:16;8.02;;;5.03;;
52318;SDS011;38258;51.148;14.068;2022-08-18T11:30:44;7.07;;;4.63;;
52318;SDS011;38258;51.148;14.068;2022-08-18T11:33:13;5.50;;;4.70;;
52318;SDS011;38258;51.148;14.068;2022-08-18T11:35:44;7.40;;;5.43;;
52318;SDS011;38258;51.148;14.068;2022-08-18T11:38:14;7.35;;;4.85;;
52318;SDS011;38258;51.148;14.068;2022-08-18T11:40:43;10.20;;;4.90;;
52318;SDS011;38258;51.148;14.068;2022-08-18T11:43:13;6.35;;;4.78;;
52318;SDS011;38258;51.148;14.068;2022-08-18T11:45:48;5.80;;;4.88;;
52318;SDS011;38258;51.148;14.068;2022-08-18T11:48:19;7.07;;;4.43;;
52318;SDS011;38258;51.148;14.068;2022-08-18T11:50:49;7.55;;;4.85;;
52318;SDS011;38258;51.148;14.068;2022-08-18T11:53:34;7.00;;;4.97;;
52318;SDS011;38258;51.148;14.068;2022-08-18T11:56:05;8.80;;;6.13;;
52318;SDS011;38258;51.148;14.068;2022-08-18T11:58:43;8.88;;;4.72;;
52318;SDS011;38258;51.148;14.068;2022-08-18T12:01:27;9.63;;;5.50;;
52318;SDS011;38258;51.148;14.068;2022-08-18T12:03:56;10.55;;;5.22;;
52318;SDS011;38258;51.148;14.068;2022-08-18T12:06:26;9.88;;;5.40;;
52318;SDS011;38258;51.148;14.068;2022-08-18T12:08:59;9.10;;;5.43;;
52318;SDS011;38258;51.148;14.068;2022-08-18T12:11:30;10.85;;;5.50;;
52318;SDS011;38258;51.148;14.068;2022-08-18T12:14:01;14.27;;;5.43;;
52318;SDS011;38258;51.148;14.068;2022-08-18T12:16:33;8.32;;;5.38;;
52318;SDS011;38258;51.148;14.068;2022-08-18T12:19:02;7.13;;;5.30;;
52318;SDS011;38258;51.148;14.068;2022-08-18T12:21:30;8.68;;;5.20;;
52318;SDS011;38258;51.148;14.068;2022-08-18T12:23:57;6.43;;;5.32;;
52318;SDS011;38258;51.148;14.068;2022-08-18T12:26:24;6.45;;;5.05;;
52318;SDS011;38258;51.148;14.068;2022-08-18T12:28:51;7.32;;;5.47;;
52318;SDS011;38258;51.148;14.068;2022-08-18T12:31:19;9.27;;;5.40;;
52318;SDS011;38258;51.148;14.068;2022-08-18T12:33:45;10.93;;;5.90;;
52318;SDS011;38258;51.148;14.068;2022-08-18T12:36:12;7.88;;;5.35;;
52318;SDS011;38258;51.148;14.068;2022-08-18T12:38:39;9.50;;;5.47;;
52318;SDS011;38258;51.148;14.068;2022-08-18T12:41:08;8.20;;;5.35;;
52318;SDS011;38258;51.148;14.068;2022-08-18T12:43:36;8.18;;;5.47;;
52318;SDS011;38258;51.148;14.068;2022-08-18T12:46:04;6.78;;;5.20;;
52318;SDS011;38258;51.148;14.068;2022-08-18T12:48:32;7.00;;;5.25;;
52318;SDS011;38258;51.148;14.068;2022-08-18T12:50:58;7.43;;;5.30;;
52318;SDS011;38258;51.148;14.068;2022-08-18T12:53:25;6.93;;;5.22;;
52318;SDS011;38258;51.148;14.068;2022-08-18T12:55:52;8.45;;;5.90;;
52318;SDS011;38258;51.148;14.068;2022-08-18T12:58:19;6.47;;;5.15;;
52318;SDS011;38258;51.148;14.068;2022-08-18T13:00:45;7.82;;;5.90;;
52318;SDS011;38258;51.148;14.068;2022-08-18T13:03:12;6.80;;;5.47;;
52318;SDS011;38258;51.148;14.068;2022-08-18T13:05:40;7.05;;;5.35;;
52318;SDS011;38258;51.148;14.068;2022-08-18T13:08:08;8.00;;;5.68;;
52318;SDS011;38258;51.148;14.068;2022-08-18T13:10:42;10.98;;;5.70;;
52318;SDS011;38258;51.148;14.068;2022-08-18T13:13:08;6.40;;;5.70;;
52318;SDS011;38258;51.148;14.068;2022-08-18T13:15:35;8.50;;;6.03;;
52318;SDS011;38258;51.148;14.068;2022-08-18T13:18:02;7.50;;;5.72;;
52318;SDS011;38258;51.148;14.068;2022-08-18T13:20:28;6.60;;;5.75;;
52318;SDS011;38258;51.148;14.068;2022-08-18T13:22:56;8.98;;;5.82;;
52318;SDS011;38258;51.148;14.068;2022-08-18T13:25:23;9.75;;;6.15;;
52318;SDS011;38258;51.148;14.068;2022-08-18T13:27:50;8.43;;;5.90;;
52318;SDS011;38258;51.148;14.068;2022-08-18T13:30:16;10.52;;;6.13;;
52318;SDS011;38258;51.148;14.068;2022-08-18T13:32:43;8.98;;;6.07;;
52318;SDS011;38258;51.148;14.068;2022-08-18T13:35:09;6.75;;;5.57;;
52318;SDS011;38258;51.148;14.068;2022-08-18T13:37:37;9.50;;;5.68;;
52318;SDS011;38258;51.148;14.068;2022-08-18T13:40:07;9.27;;;5.97;;
52318;SDS011;38258;51.148;14.068;2022-08-18T13:42:40;12.75;;;6.10;;
52318;SDS011;38258;51.148;14.068;2022-08-18T13:45:13;7.93;;;6.03;;
52318;SDS011;38258;51.148;14.068;2022-08-18T13:47:41;8.98;;;6.30;;
52318;SDS011;38258;51.148;14.068;2022-08-18T13:50:10;9.18;;;5.88;;
52318;SDS011;38258;51.148;14.068;2022-08-18T13:52:37;8.35;;;6.05;;
52318;SDS011;38258;51.148;14.068;2022-08-18T13:55:05;9.20;;;6.30;;
52318;SDS011;38258;51.148;14.068;2022-08-18T13:57:36;11.35;;;6.28;;
52318;SDS011;38258;51.148;14.068;2022-08-18T14:00:04;7.00;;;5.80;;
52318;SDS011;38258;51.148;14.068;2022-08-18T14:02:35;6.97;;;6.18;;
52318;SDS011;38258;51.148;14.068;2022-08-18T14:05:02;8.40;;;6.10;;
52318;SDS011;38258;51.148;14.068;2022-08-18T14:07:29;8.23;;;5.90;;
52318;SDS011;38258;51.148;14.068;2022-08-18T14:09:56;9.38;;;6.50;;
52318;SDS011;38258;51.148;14.068;2022-08-18T14:12:24;7.45;;;5.95;;
52318;SDS011;38258;51.148;14.068;2022-08-18T14:14:51;10.05;;;5.93;;
52318;SDS011;38258;51.148;14.068;2022-08-18T14:17:19;10.32;;;6.53;;
52318;SDS011;38258;51.148;14.068;2022-08-18T14:19:46;8.15;;;6.18;;
52318;SDS011;38258;51.148;14.068;2022-08-18T14:22:30;8.20;;;6.25;;
52318;SDS011;38258;51.148;14.068;2022-08-18T14:25:14;6.72;;;5.57;;
52318;SDS011;38258;51.148;14.068;2022-08-18T14:28:00;6.97;;;6.00;;
52318;SDS011;38258;51.148;14.068;2022-08-18T14:30:26;9.10;;;6.32;;
52318;SDS011;38258;51.148;14.068;2022-08-18T14:32:53;8.57;;;6.00;;
52318;SDS011;38258;51.148;14.068;2022-08-18T14:35:20;9.80;;;6.65;;
52318;SDS011;38258;51.148;14.068;2022-08-18T14:37:47;8.38;;;6.43;;
52318;SDS011;38258;51.148;14.068;2022-08-18T14:40:14;6.88;;;6.18;;
52318;SDS011;38258;51.148;14.068;2022-08-18T14:42:41;9.23;;;6.40;;
52318;SDS011;38258;51.148;14.068;2022-08-18T14:45:11;7.65;;;6.03;;
52318;SDS011;38258;51.148;14.068;2022-08-18T14:47:39;8.57;;;6.80;;
52318;SDS011;38258;51.148;14.068;2022-08-18T14:50:06;11.23;;;7.32;;
52318;SDS011;38258;51.148;14.068;2022-08-18T14:52:37;12.90;;;6.72;;
52318;SDS011;38258;51.148;14.068;2022-08-18T14:55:04;7.50;;;6.70;;
52318;SDS011;38258;51.148;14.068;2022-08-18T14:57:32;10.05;;;6.93;;
52318;SDS011;38258;51.148;14.068;2022-08-18T14:59:58;8.98;;;6.50;;
52318;SDS011;38258;51.148;14.068;2022-08-18T15:02:26;9.65;;;7.10;;
52318;SDS011;38258;51.148;14.068;2022-08-18T15:04:52;7.90;;;6.53;;
52318;SDS011;38258;51.148;14.068;2022-08-18T15:07:19;7.80;;;6.75;;
52318;SDS011;38258;51.148;14.068;2022-08-18T15:09:46;8.10;;;6.55;;
52318;SDS011;38258;51.148;14.068;2022-08-18T15:12:12;9.77;;;6.82;;
52318;SDS011;38258;51.148;14.068;2022-08-18T15:14:41;9.90;;;6.93;;
52318;SDS011;38258;51.148;14.068;2022-08-18T15:17:07;9.45;;;7.20;;
52318;SDS011;38258;51.148;14.068;2022-08-18T15:19:37;9.70;;;6.78;;
52318;SDS011;38258;51.148;14.068;2022-08-18T15:22:04;10.85;;;7.20;;
52318;SDS011;38258;51.148;14.068;2022-08-18T15:24:48;10.48;;;7.45;;
52318;SDS011;38258;51.148;14.068;2022-08-18T15:27:32;9.35;;;6.97;;
52318;SDS011;38258;51.148;14.068;2022-08-18T15:30:03;9.52;;;7.20;;
52318;SDS011;38258;51.148;14.068;2022-08-18T15:32:32;10.40;;;7.00;;
52318;SDS011;38258;51.148;14.068;2022-08-18T15:35:00;8.82;;;6.72;;